createdAt,value
2019-03-22T00:00:46.128Z,48.73
2019-03-22T00:03:14.241Z,41.50
2019-03-22T00:05:42.248Z,45.47
2019-03-22T00:08:10.224Z,37.23
2019-03-22T00:10:38.298Z,39.47
2019-03-22T00:13:06.389Z,44.87
2019-03-22T00:15:34.432Z,49.70
2019-03-22T00:18:02.480Z,47.53
2019-03-22T00:20:30.638Z,43.57
2019-03-22T00:22:58.628Z,42.37
2019-03-22T00:25:26.710Z,43.87
2019-03-22T00:27:54.722Z,40.77
2019-03-22T00:30:22.653Z,46.27
2019-03-22T00:32:50.713Z,41.67
2019-03-22T00:35:18.783Z,39.77
2019-03-22T00:37:46.888Z,38.27
2019-03-22T00:40:14.986Z,39.47
2019-03-22T00:42:43.074Z,42.00
2019-03-22T00:45:11.518Z,36.53
2019-03-22T00:47:39.589Z,41.93
2019-03-22T00:50:07.679Z,50.07
2019-03-22T00:52:35.647Z,39.27
2019-03-22T00:55:04.020Z,48.10
2019-03-22T00:57:32.043Z,44.23
2019-03-22T00:59:59.992Z,37.43
2019-03-22T01:02:28.134Z,40.73
2019-03-22T01:04:56.130Z,43.53
2019-03-22T01:07:24.189Z,43.23
2019-03-22T01:09:52.186Z,41.30
2019-03-22T01:12:20.347Z,42.87
2019-03-22T01:14:48.451Z,40.83
2019-03-22T01:17:16.513Z,41.10
2019-03-22T01:19:44.669Z,45.93
2019-03-22T01:22:12.895Z,37.43
2019-03-22T01:24:40.946Z,43.57
2019-03-22T01:27:08.948Z,38.10
2019-03-22T01:29:37.021Z,38.43
2019-03-22T01:32:05.155Z,36.70
2019-03-22T01:34:33.221Z,40.77
2019-03-22T01:37:01.281Z,38.97
2019-03-22T01:39:29.376Z,42.83
2019-03-22T01:41:57.445Z,42.47
2019-03-22T01:44:25.567Z,41.07
2019-03-22T01:46:53.613Z,39.87
2019-03-22T01:49:21.908Z,38.60
2019-03-22T01:51:49.955Z,46.80
2019-03-22T01:54:18.062Z,45.53
2019-03-22T01:56:46.175Z,42.80
2019-03-22T01:59:14.110Z,38.63
2019-03-22T02:01:42.142Z,43.30
2019-03-22T02:04:10.183Z,43.20
2019-03-22T02:06:38.143Z,42.13
2019-03-22T02:09:07.988Z,38.07
2019-03-22T02:11:36.079Z,40.67
2019-03-22T02:14:04.402Z,48.33
2019-03-22T02:16:32.470Z,38.67
2019-03-22T02:19:00.543Z,40.83
2019-03-22T02:21:28.842Z,41.70
2019-03-22T02:23:56.891Z,38.57
2019-03-22T02:26:24.922Z,40.90
2019-03-22T02:28:53.499Z,39.40
2019-03-22T02:31:21.563Z,39.80
2019-03-22T02:33:49.738Z,46.10
2019-03-22T02:36:17.809Z,39.50
2019-03-22T02:38:46.423Z,38.50
2019-03-22T02:41:14.856Z,42.37
2019-03-22T02:43:42.883Z,43.03
2019-03-22T02:46:11.039Z,44.13
2019-03-22T02:48:39.126Z,42.63
2019-03-22T02:51:07.155Z,46.53
2019-03-22T02:53:35.173Z,39.40
2019-03-22T02:56:03.467Z,45.57
2019-03-22T02:58:31.711Z,42.77
2019-03-22T03:01:00.035Z,42.50
2019-03-22T03:03:28.005Z,38.10
2019-03-22T03:05:56.107Z,35.53
2019-03-22T03:08:24.130Z,35.80
2019-03-22T03:10:52.057Z,40.47
2019-03-22T03:13:20.093Z,37.33
2019-03-22T03:15:48.282Z,37.20
2019-03-22T03:18:16.429Z,38.70
2019-03-22T03:20:44.470Z,40.70
2019-03-22T03:23:12.523Z,33.83
2019-03-22T03:25:40.623Z,33.50
2019-03-22T03:28:08.581Z,30.87
2019-03-22T03:30:36.678Z,36.33
2019-03-22T03:33:04.745Z,39.70
2019-03-22T03:35:32.711Z,35.77
2019-03-22T03:38:00.779Z,34.83
2019-03-22T03:40:28.852Z,40.47
2019-03-22T03:42:56.901Z,40.27
2019-03-22T03:45:33.400Z,36.07
2019-03-22T03:48:02.211Z,40.87
2019-03-22T03:50:30.577Z,35.07
2019-03-22T03:52:58.593Z,35.67
2019-03-22T03:55:26.666Z,35.83
2019-03-22T03:57:54.704Z,33.47
2019-03-22T04:00:22.783Z,31.47
2019-03-22T04:02:50.852Z,32.93
2019-03-22T04:05:18.807Z,36.37
2019-03-22T04:07:46.852Z,35.97
2019-03-22T04:10:14.883Z,34.50
2019-03-22T04:12:42.801Z,34.10
2019-03-22T04:15:10.883Z,29.93
2019-03-22T04:17:39.002Z,35.73
2019-03-22T04:20:07.188Z,33.53
2019-03-22T04:22:36.497Z,34.60
2019-03-22T04:25:05.442Z,36.83
2019-03-22T04:27:33.461Z,41.83
2019-03-22T04:30:01.534Z,39.07
2019-03-22T04:32:29.477Z,41.43
2019-03-22T04:34:57.533Z,38.63
2019-03-22T04:37:25.574Z,32.67
2019-03-22T04:39:53.579Z,41.87
2019-03-22T04:42:21.637Z,32.87
2019-03-22T04:44:49.685Z,35.50
2019-03-22T04:47:20.139Z,35.60
2019-03-22T04:49:52.401Z,39.80
2019-03-22T04:52:23.308Z,42.97
2019-03-22T04:54:54.825Z,37.53
2019-03-22T04:57:24.134Z,39.67
2019-03-22T04:59:52.910Z,36.87
2019-03-22T05:02:22.155Z,35.27
2019-03-22T05:04:50.764Z,41.13
2019-03-22T05:07:19.290Z,37.93
2019-03-22T05:09:48.856Z,36.07
2019-03-22T05:12:19.423Z,42.03
2019-03-22T05:14:48.570Z,37.10
2019-03-22T05:17:17.752Z,38.30
2019-03-22T05:19:51.472Z,50.23
2019-03-22T05:22:22.199Z,39.27
2019-03-22T05:24:50.910Z,44.37
2019-03-22T05:27:20.370Z,44.20
2019-03-22T05:29:50.021Z,39.23
2019-03-22T05:32:18.772Z,34.40
2019-03-22T05:34:46.782Z,34.87
2019-03-22T05:37:14.990Z,41.23
2019-03-22T05:39:43.087Z,43.80
2019-03-22T05:42:11.323Z,37.80
2019-03-22T05:44:39.455Z,38.90
2019-03-22T05:47:07.455Z,40.73
2019-03-22T05:49:35.554Z,47.00
2019-03-22T05:52:03.696Z,35.33
2019-03-22T05:54:31.721Z,42.50
2019-03-22T05:56:59.867Z,36.17
2019-03-22T05:59:27.900Z,35.43
2019-03-22T06:01:55.901Z,46.17
2019-03-22T06:04:23.976Z,40.87
2019-03-22T06:06:52.045Z,37.07
2019-03-22T06:09:20.064Z,41.67
2019-03-22T06:11:48.063Z,37.73
2019-03-22T06:14:16.078Z,35.97
2019-03-22T06:16:44.220Z,40.33
2019-03-22T06:19:12.572Z,43.80
2019-03-22T06:21:40.807Z,47.90
2019-03-22T06:24:08.892Z,40.70
2019-03-22T06:26:36.976Z,36.60
2019-03-22T06:29:05.005Z,36.77
2019-03-22T06:31:33.042Z,37.73
2019-03-22T06:34:01.129Z,35.10
2019-03-22T06:36:29.303Z,40.13
2019-03-22T06:38:57.459Z,37.70
2019-03-22T06:41:25.649Z,40.17
2019-03-22T06:43:53.655Z,37.83
2019-03-22T06:46:21.940Z,39.47
2019-03-22T06:48:49.930Z,39.20
2019-03-22T06:51:17.983Z,38.83
2019-03-22T06:53:45.929Z,41.97
2019-03-22T06:56:13.949Z,36.10
2019-03-22T06:58:42.044Z,32.97
2019-03-22T07:01:10.023Z,43.20
2019-03-22T07:03:38.495Z,30.80
2019-03-22T07:06:06.498Z,32.23
2019-03-22T07:08:34.413Z,34.30
2019-03-22T07:11:02.535Z,34.60
2019-03-22T07:13:30.537Z,36.87
2019-03-22T07:15:58.533Z,35.40
2019-03-22T07:18:26.542Z,36.50
2019-03-22T07:20:54.612Z,37.93
2019-03-22T07:23:22.758Z,32.93
2019-03-22T07:25:50.745Z,35.33
2019-03-22T07:28:18.786Z,31.30
2019-03-22T07:30:46.918Z,34.17
2019-03-22T07:33:14.917Z,27.83
2019-03-22T07:35:42.957Z,30.90
2019-03-22T07:38:11.191Z,35.87
2019-03-22T07:40:39.353Z,34.53
2019-03-22T07:43:07.313Z,35.53
2019-03-22T07:45:35.358Z,30.70
2019-03-22T07:48:03.463Z,30.80
2019-03-22T07:50:31.456Z,26.50
2019-03-22T07:52:59.501Z,30.70
2019-03-22T07:55:27.505Z,29.07
2019-03-22T07:57:56.881Z,31.63
2019-03-22T08:00:30.684Z,27.27
2019-03-22T08:02:54.848Z,30.83
2019-03-22T08:05:22.984Z,30.60
2019-03-22T08:07:51.070Z,25.47
2019-03-22T08:10:18.986Z,27.03
2019-03-22T08:12:47.122Z,31.07
2019-03-22T08:15:28.967Z,26.67
2019-03-22T08:17:57.320Z,25.87
2019-03-22T08:20:25.814Z,27.27
2019-03-22T08:22:53.871Z,28.03
2019-03-22T08:25:21.926Z,30.77
2019-03-22T08:27:50.122Z,33.70
2019-03-22T08:30:18.013Z,24.77
2019-03-22T08:32:46.089Z,24.10
2019-03-22T08:35:14.072Z,25.33
2019-03-22T08:37:51.956Z,22.90
2019-03-22T08:40:12.595Z,16.13
2019-03-22T08:42:40.586Z,15.17
2019-03-22T08:45:11.293Z,11.00
2019-03-22T08:47:39.428Z,16.60
2019-03-22T08:50:07.591Z,17.60
2019-03-22T08:52:35.667Z,19.43
2019-03-22T08:55:03.751Z,13.13
2019-03-22T08:57:33.279Z,15.83
2019-03-22T09:00:01.272Z,14.60
2019-03-22T09:02:29.303Z,19.20
2019-03-22T09:04:57.454Z,18.77
2019-03-22T09:07:25.472Z,19.27
2019-03-22T09:09:53.516Z,16.63
2019-03-22T09:12:21.568Z,18.17
2019-03-22T09:14:49.576Z,17.63
2019-03-22T09:17:17.655Z,16.17
2019-03-22T09:19:45.711Z,24.90
2019-03-22T09:22:13.719Z,15.57
2019-03-22T09:24:41.962Z,13.43
2019-03-22T09:27:09.931Z,18.40
2019-03-22T09:29:38.003Z,21.83
2019-03-22T09:32:06.074Z,16.03
2019-03-22T09:34:34.392Z,17.27
2019-03-22T09:37:02.534Z,12.33
2019-03-22T09:39:30.560Z,11.30
2019-03-22T09:41:58.690Z,14.10
2019-03-22T09:44:28.352Z,11.63
2019-03-22T09:46:56.661Z,18.33
2019-03-22T09:49:24.971Z,13.57
2019-03-22T09:51:55.221Z,12.93
2019-03-22T09:54:23.141Z,14.80
2019-03-22T09:56:51.258Z,11.57
2019-03-22T09:59:19.471Z,13.27
2019-03-22T10:01:47.600Z,17.80
2019-03-22T10:04:16.897Z,12.20
2019-03-22T10:06:45.129Z,14.50
2019-03-22T10:09:13.179Z,16.33
2019-03-22T10:11:41.497Z,13.70
2019-03-22T10:14:09.584Z,15.03
2019-03-22T10:16:37.677Z,12.23
2019-03-22T10:19:05.686Z,12.53
2019-03-22T10:21:33.786Z,10.47
2019-03-22T10:24:02.138Z,14.17
2019-03-22T10:26:30.332Z,11.90
2019-03-22T10:28:58.536Z,13.33
2019-03-22T10:31:36.590Z,11.40
2019-03-22T10:33:56.628Z,11.43
2019-03-22T10:36:24.735Z,11.70
2019-03-22T10:38:52.672Z,13.33
2019-03-22T10:41:20.756Z,12.63
2019-03-22T10:43:48.841Z,13.97
2019-03-22T10:46:17.136Z,10.80
2019-03-22T10:48:45.339Z,14.13
2019-03-22T10:51:13.429Z,14.17
2019-03-22T10:53:41.457Z,12.03
2019-03-22T10:56:09.574Z,12.23
2019-03-22T10:58:37.698Z,12.70
2019-03-22T11:01:08.295Z,11.20
2019-03-22T11:03:35.922Z,13.03
2019-03-22T11:06:04.061Z,13.13
2019-03-22T11:08:32.084Z,13.83
2019-03-22T11:11:00.120Z,12.50
2019-03-22T11:13:28.128Z,11.70
2019-03-22T11:15:56.158Z,16.50
2019-03-22T11:18:24.168Z,11.47
2019-03-22T11:20:52.421Z,13.07
2019-03-22T11:23:20.514Z,13.23
2019-03-22T11:25:48.916Z,14.00
2019-03-22T11:28:17.112Z,12.47
2019-03-22T11:30:45.254Z,15.40
2019-03-22T11:33:13.350Z,12.93
2019-03-22T11:35:41.341Z,12.23
2019-03-22T11:38:09.404Z,13.93
2019-03-22T11:40:37.531Z,17.60
2019-03-22T11:43:08.833Z,12.07
2019-03-22T11:45:35.764Z,13.70
2019-03-22T11:48:03.986Z,11.80
2019-03-22T11:50:32.157Z,12.03
2019-03-22T11:53:00.287Z,13.83
2019-03-22T11:55:28.406Z,13.83
2019-03-22T11:57:56.492Z,12.70
2019-03-22T12:00:25.350Z,12.77
2019-03-22T12:02:53.460Z,12.60
2019-03-22T12:05:21.910Z,15.50
2019-03-22T12:07:49.992Z,12.73
2019-03-22T12:10:19.026Z,13.93
2019-03-22T12:12:47.224Z,11.13
2019-03-22T12:15:17.511Z,16.67
2019-03-22T12:17:45.565Z,11.30
2019-03-22T12:20:14.372Z,12.07
2019-03-22T12:22:42.542Z,11.13
2019-03-22T12:25:13.322Z,13.23
2019-03-22T12:27:41.465Z,11.30
2019-03-22T12:30:14.231Z,12.87
2019-03-22T12:32:42.431Z,9.77
2019-03-22T12:35:10.860Z,11.17
2019-03-22T12:37:38.949Z,11.33
2019-03-22T12:40:07.657Z,11.03
2019-03-22T12:42:35.589Z,11.60
2019-03-22T12:45:05.543Z,13.87
2019-03-22T12:47:33.680Z,10.33
2019-03-22T12:50:01.700Z,11.93
2019-03-22T12:52:31.356Z,9.03
2019-03-22T12:54:59.476Z,12.20
2019-03-22T12:57:27.604Z,10.67
2019-03-22T12:59:55.581Z,9.50
2019-03-22T13:02:23.627Z,7.00
2019-03-22T13:04:51.725Z,8.77
2019-03-22T13:07:19.865Z,8.30
2019-03-22T13:09:48.789Z,8.27
2019-03-22T13:12:17.394Z,11.03
2019-03-22T13:14:45.466Z,11.43
2019-03-22T13:17:13.547Z,6.93
2019-03-22T13:19:41.562Z,6.63
2019-03-22T13:22:09.567Z,6.77
2019-03-22T13:24:37.628Z,7.37
2019-03-22T13:27:05.827Z,9.27
2019-03-22T13:29:33.941Z,6.43
2019-03-22T13:32:02.110Z,6.40
2019-03-22T13:34:30.113Z,7.17
2019-03-22T13:36:58.214Z,7.17
2019-03-22T13:39:26.538Z,8.53
2019-03-22T13:41:54.528Z,5.50
2019-03-22T13:44:22.554Z,4.67
2019-03-22T13:46:50.745Z,5.13
2019-03-22T13:49:18.875Z,6.40
2019-03-22T13:51:46.916Z,6.40
2019-03-22T13:54:15.845Z,5.70
2019-03-22T13:56:43.789Z,5.50
2019-03-22T13:59:11.843Z,5.63
2019-03-22T14:01:39.965Z,6.50
2019-03-22T14:04:08.130Z,5.83
2019-03-22T14:06:36.150Z,6.37
2019-03-22T14:09:06.572Z,6.27
2019-03-22T14:11:34.631Z,5.97
2019-03-22T14:14:02.709Z,7.00
2019-03-22T14:16:30.727Z,6.33
2019-03-22T14:19:00.050Z,7.90
2019-03-22T14:21:28.231Z,6.47
2019-03-22T14:23:56.233Z,6.77
2019-03-22T14:26:24.429Z,6.53
2019-03-22T14:28:52.450Z,5.07
2019-03-22T14:31:20.500Z,6.27
2019-03-22T14:33:48.537Z,5.60
2019-03-22T14:36:16.638Z,7.33
2019-03-22T14:38:44.690Z,8.80
2019-03-22T14:41:12.665Z,3.57
2019-03-22T14:43:40.712Z,5.57
2019-03-22T14:46:08.788Z,4.70
2019-03-22T14:48:36.741Z,7.70
2019-03-22T14:51:04.812Z,5.87
2019-03-22T14:53:32.893Z,7.50
2019-03-22T14:56:01.695Z,5.60
2019-03-22T14:58:29.674Z,6.97
2019-03-22T15:00:57.677Z,5.93
2019-03-22T15:03:28.587Z,6.67
2019-03-22T15:05:57.622Z,5.67
2019-03-22T15:08:25.767Z,8.97
2019-03-22T15:10:55.921Z,6.90
2019-03-22T15:13:32.112Z,10.63
2019-03-22T15:16:18.151Z,10.20
2019-03-22T15:19:05.694Z,6.57
2019-03-22T15:21:52.397Z,6.93
2019-03-22T15:24:48.968Z,6.00
2019-03-22T15:27:35.003Z,7.67
2019-03-22T15:30:30.298Z,9.30
2019-03-22T15:33:34.217Z,8.57
2019-03-22T15:36:07.778Z,8.87
2019-03-22T15:39:00.287Z,8.90
2019-03-22T15:41:28.564Z,10.90
2019-03-22T15:43:56.595Z,13.37
2019-03-22T15:46:24.678Z,7.37
2019-03-22T15:48:52.714Z,6.03
2019-03-22T15:51:20.727Z,8.30
2019-03-22T15:53:48.822Z,12.40
2019-03-22T15:56:17.074Z,5.10
2019-03-22T15:58:45.097Z,11.17
2019-03-22T16:01:13.170Z,10.77
2019-03-22T16:03:44.361Z,8.67
2019-03-22T16:06:11.743Z,6.90
2019-03-22T16:08:39.757Z,9.67
2019-03-22T16:11:07.826Z,6.83
2019-03-22T16:13:36.338Z,7.23
2019-03-22T16:16:05.237Z,7.07
2019-03-22T16:18:34.396Z,11.07
2019-03-22T16:21:03.795Z,8.43
2019-03-22T16:23:32.455Z,11.03
2019-03-22T16:26:00.973Z,7.77
2019-03-22T16:28:29.834Z,8.00
2019-03-22T16:30:58.950Z,12.43
2019-03-22T16:33:27.302Z,10.50
2019-03-22T16:35:55.414Z,9.57
2019-03-22T16:38:23.481Z,9.73
2019-03-22T16:40:51.642Z,15.17
2019-03-22T16:43:19.667Z,13.23
2019-03-22T16:45:47.685Z,16.53
2019-03-22T16:48:15.799Z,9.27
2019-03-22T16:50:43.967Z,9.77
2019-03-22T16:53:12.129Z,10.17
2019-03-22T16:55:41.140Z,9.90
2019-03-22T16:58:11.420Z,10.10
2019-03-22T17:00:40.260Z,13.87
2019-03-22T17:03:09.764Z,11.50
2019-03-22T17:05:38.443Z,10.13
2019-03-22T17:08:08.233Z,12.07
2019-03-22T17:10:36.533Z,11.90
2019-03-22T17:13:05.725Z,10.13
2019-03-22T17:15:35.047Z,9.83
2019-03-22T17:18:04.487Z,10.20
2019-03-22T17:20:34.519Z,9.70
2019-03-22T17:23:03.543Z,13.10
2019-03-22T17:25:32.270Z,10.93
2019-03-22T17:28:00.951Z,11.07
2019-03-22T17:30:29.103Z,11.70
2019-03-22T17:32:58.211Z,10.87
2019-03-22T17:35:31.779Z,9.17
2019-03-22T17:38:00.539Z,11.83
2019-03-22T17:40:29.227Z,17.37
2019-03-22T17:42:58.029Z,12.17
2019-03-22T17:45:27.769Z,10.77
2019-03-22T17:47:57.822Z,7.30
2019-03-22T17:50:27.531Z,9.13
2019-03-22T17:52:56.876Z,13.57
2019-03-22T17:55:26.444Z,12.87
2019-03-22T17:57:55.213Z,13.70
2019-03-22T18:00:25.137Z,15.13
2019-03-22T18:02:53.871Z,20.43
2019-03-22T18:05:22.240Z,24.67
2019-03-22T18:07:51.201Z,21.10
2019-03-22T18:10:19.541Z,25.00
2019-03-22T18:12:47.890Z,27.57
2019-03-22T18:15:16.275Z,24.47
2019-03-22T18:17:45.017Z,36.07
2019-03-22T18:20:13.590Z,58.57
2019-03-22T18:22:41.873Z,67.63
2019-03-22T18:25:11.099Z,67.70
2019-03-22T18:27:39.844Z,74.43
2019-03-22T18:30:08.912Z,39.87
2019-03-22T18:32:37.363Z,50.47
2019-03-22T18:35:06.471Z,47.90
2019-03-22T18:37:35.352Z,46.93
2019-03-22T18:40:07.417Z,53.00
2019-03-22T18:42:35.520Z,29.83
2019-03-22T18:45:04.265Z,24.07
2019-03-22T18:47:32.248Z,19.37
2019-03-22T18:50:00.303Z,18.13
2019-03-22T18:52:28.738Z,22.33
2019-03-22T18:54:56.736Z,46.10
2019-03-22T18:57:24.725Z,46.03
2019-03-22T18:59:52.688Z,58.43
2019-03-22T19:02:20.805Z,64.00
2019-03-22T19:04:48.877Z,70.90
2019-03-22T19:07:16.813Z,60.87
2019-03-22T19:09:44.969Z,65.20
2019-03-22T19:12:12.975Z,67.30
2019-03-22T19:14:40.999Z,55.00
2019-03-22T19:17:09.031Z,35.50
2019-03-22T19:19:36.976Z,40.97
2019-03-22T19:22:05.154Z,28.30
2019-03-22T19:24:33.273Z,30.47
2019-03-22T19:27:01.305Z,24.40
2019-03-22T19:29:29.597Z,28.83
2019-03-22T19:31:57.657Z,27.93
2019-03-22T19:34:25.715Z,25.63
2019-03-22T19:36:53.777Z,26.40
2019-03-22T19:39:21.743Z,26.07
2019-03-22T19:41:50.534Z,26.00
2019-03-22T19:44:18.507Z,19.07
2019-03-22T19:46:46.879Z,24.83
2019-03-22T19:49:14.943Z,17.90
2019-03-22T19:51:43.105Z,18.10
2019-03-22T19:54:11.315Z,16.97
2019-03-22T19:56:39.291Z,23.17
2019-03-22T19:59:07.334Z,16.90
2019-03-22T20:01:35.304Z,20.17
2019-03-22T20:04:04.455Z,22.47
2019-03-22T20:06:32.543Z,20.97
2019-03-22T20:09:01.006Z,18.53
2019-03-22T20:11:29.295Z,22.80
2019-03-22T20:13:57.930Z,17.57
2019-03-22T20:16:25.870Z,19.40
2019-03-22T20:18:53.891Z,24.17
2019-03-22T20:21:22.553Z,32.83
2019-03-22T20:23:53.807Z,20.17
2019-03-22T20:26:20.813Z,25.33
2019-03-22T20:28:51.178Z,24.83
2019-03-22T20:31:19.377Z,20.37
2019-03-22T20:33:47.885Z,17.23
2019-03-22T20:36:16.186Z,20.00
2019-03-22T20:38:44.659Z,18.23
2019-03-22T20:41:13.637Z,19.90
2019-03-22T20:43:41.572Z,20.97
2019-03-22T20:46:10.342Z,23.33
2019-03-22T20:48:38.741Z,19.53
2019-03-22T20:51:07.116Z,22.33
2019-03-22T20:53:35.163Z,18.90
2019-03-22T20:56:04.209Z,17.97
2019-03-22T20:58:32.285Z,25.37
2019-03-22T21:01:00.237Z,20.20
2019-03-22T21:03:28.290Z,25.57
2019-03-22T21:05:56.344Z,24.73
2019-03-22T21:08:24.410Z,33.03
2019-03-22T21:10:52.420Z,29.43
2019-03-22T21:13:20.370Z,32.70
2019-03-22T21:15:52.718Z,28.57
2019-03-22T21:18:20.710Z,31.33
2019-03-22T21:20:48.731Z,25.93
2019-03-22T21:23:16.758Z,25.30
2019-03-22T21:25:44.929Z,25.70
2019-03-22T21:28:12.940Z,26.73
2019-03-22T21:30:40.927Z,27.80
2019-03-22T21:33:08.853Z,26.53
2019-03-22T21:35:37.747Z,26.07
2019-03-22T21:38:10.896Z,25.03
2019-03-22T21:40:35.758Z,27.90
2019-03-22T21:43:03.931Z,29.53
2019-03-22T21:45:31.879Z,30.20
2019-03-22T21:48:00.004Z,31.00
2019-03-22T21:50:27.969Z,26.83
2019-03-22T21:52:55.935Z,28.57
2019-03-22T21:55:23.928Z,31.33
2019-03-22T21:57:51.906Z,32.67
2019-03-22T22:00:19.901Z,30.13
2019-03-22T22:02:47.844Z,29.90
2019-03-22T22:05:15.813Z,30.23
2019-03-22T22:07:43.790Z,28.03
2019-03-22T22:10:11.754Z,31.13
2019-03-22T22:12:39.780Z,31.63
2019-03-22T22:15:09.790Z,31.77
2019-03-22T22:17:39.336Z,34.70
2019-03-22T22:20:08.034Z,32.53
2019-03-22T22:22:36.420Z,32.20
2019-03-22T22:25:04.651Z,34.23
2019-03-22T22:27:32.826Z,31.43
2019-03-22T22:30:00.850Z,32.60
2019-03-22T22:32:29.401Z,28.30
2019-03-22T22:34:57.349Z,28.27
2019-03-22T22:37:25.335Z,36.63
2019-03-22T22:39:53.318Z,29.00
2019-03-22T22:42:21.307Z,29.03
2019-03-22T22:44:49.300Z,29.63
2019-03-22T22:47:17.243Z,30.67
2019-03-22T22:49:53.770Z,26.20
2019-03-22T22:52:24.635Z,30.57
2019-03-22T22:54:52.555Z,23.43
2019-03-22T22:57:20.532Z,27.10
2019-03-22T22:59:48.600Z,26.37
2019-03-22T23:02:16.594Z,20.27
2019-03-22T23:04:44.636Z,20.63
2019-03-22T23:07:12.677Z,18.27
2019-03-22T23:09:40.708Z,18.17
2019-03-22T23:12:08.653Z,18.43
2019-03-22T23:14:36.801Z,23.47
2019-03-22T23:17:04.905Z,20.77
2019-03-22T23:19:32.802Z,18.87
2019-03-22T23:22:00.975Z,19.17
2019-03-22T23:24:28.948Z,18.80
2019-03-22T23:26:57.044Z,19.40
2019-03-22T23:29:25.731Z,15.73
2019-03-22T23:32:00.236Z,19.27
2019-03-22T23:34:28.505Z,15.83
2019-03-22T23:36:56.447Z,17.93
2019-03-22T23:39:24.436Z,17.23
2019-03-22T23:41:52.522Z,18.27
2019-03-22T23:44:20.431Z,16.77
2019-03-22T23:46:48.519Z,18.67
2019-03-22T23:49:16.579Z,14.80
2019-03-22T23:51:44.624Z,17.33
2019-03-22T23:54:12.621Z,17.93
2019-03-22T23:56:40.640Z,16.23
2019-03-22T23:59:08.571Z,14.17
